• Join FlightAware (Why Join?)
  • Login
  • US Flag 
02:34AM EST


 

Airport Tracker/Info


-or-


 

Live Flight TrackerFlight Track Log ✈ FLG3862 ✈ 19-Apr-2013 ✈ KDTW - KBTV

Flight Track Log - Related Links

Times and Time Zones

All times are in EDT time to prevent confusion due to time zone crossing. See the FLG3862 flight status page for this flight to view local times or setup timezone preferences in your user account.

Time Position Orientation Groundspeed Altitude Reporting Facility
EDT Latitude Longitude Course Direction KTS MPH feet Rate Location/Type
11:37AM 42.2017 -83.3497 94° East 138 159 1,200  Level Cleveland Center
11:37AM 42.1706 -83.3428 171° South 182 209 2,800 2,280 Climbing Cleveland Center
11:39AM 42.1003 -83.3231 168° South 257 296 5,600 2,160 Climbing Cleveland Center
11:39AM 42.0772 -83.2436 111° Southeast 274 315 7,400 1,980 Climbing Cleveland Center
11:40AM 42.3203 -82.7143 82° East  Level FlightAware Approximate
11:40AM 42.0922 -83.1294 80° East 297 342 9,400  Level Cleveland Center
11:41AM 42.3410 -82.5529 71° East  Level FlightAware Approximate
11:41AM 42.1406 -83.0167 60° Northeast 319 367 11,300  Level Cleveland Center
11:42AM 42.3665 -82.3974 94° East  Level FlightAware Approximate
11:42AM 42.1933 -82.8869 61° Northeast 347 399 12,300  Level Cleveland Center
11:43AM 42.2481 -82.7514 61° Northeast 381 438 14,100 1,500 Climbing Cleveland Center
11:44AM 42.3047 -82.6103 61° Northeast 405 466 15,300 1,380 Climbing Cleveland Center
11:45AM 42.3614 -82.4603 63° Northeast 429 494 16,900 1,500 Climbing Cleveland Center
11:46AM 42.3619 -82.3058 90° East 413 475 18,400 1,320 Climbing Cleveland Center
11:47AM 42.3539 -82.1314 94° East 413 475 19,600 1,080 Climbing Cleveland Center
11:48AM 42.3456 -81.9625 94° East 431 496 20,600 960 Climbing Cleveland Center
11:49AM 42.3411 -81.7967 92° East 442 509 21,600 900 Climbing Cleveland Center
11:50AM 42.3322 -81.6506 95° East 442 509 22,500 900 Climbing Cleveland Center
11:51AM 42.3275 -81.4847 92° East 442 509 23,500 960 Climbing Cleveland Center
11:52AM 42.3203 -81.3161 93° East 447 514 24,500 720 Climbing Cleveland Center
11:53AM 42.3506 -81.1450 76° East 454 522 25,000 480 Climbing Cleveland Center
11:54AM 42.3844 -80.9683 75° East 472 543 25,500 900 Climbing Cleveland Center
11:55AM 42.4206 -80.7772 76° East 472 543 26,800 720 Climbing Cleveland Center
11:56AM 42.4497 -80.6056 77° East 464 534 27,000 60 Climbing Cleveland Center
11:57AM 42.4808 -80.4256 77° East 474 545 27,000  Level Cleveland Center
11:58AM 42.5139 -80.2481 76° East 480 552 27,000  Level Cleveland Center
11:59AM 42.5467 -80.0703 76° East 480 552 27,000  Level Cleveland Center
12:00PM 42.5811 -79.8867 76° East 491 565 27,000  Level Cleveland Center
12:01PM 42.6133 -79.7058 76° East 491 565 27,000  Level Cleveland Center
12:02PM 42.6450 -79.5247 77° East 491 565 27,000  Level Cleveland Center
12:03PM 42.6744 -79.3433 77° East 486 559 27,000  Level Cleveland Center
12:04PM 42.7058 -79.1619 77° East 486 559 27,000  Level Cleveland Center
12:05PM 42.7367 -78.9806 77° East 491 565 27,000  Level Cleveland Center
12:06PM 42.7653 -78.7958 78° East 491 565 27,000  Level Cleveland Center
12:07PM 42.7956 -78.6111 77° East 491 565 27,000  Level Cleveland Center
12:08PM 42.8256 -78.4261 77° East 491 565 27,000  Level Cleveland Center
12:09PM 42.8553 -78.2381 79° East 491 565 27,000  Level Cleveland Center
12:10PM 42.8482 -78.2658 79° East  Level FlightAware Approximate
12:10PM 42.8869 -78.0528 77° East 491 565 27,000  Level Cleveland Center
12:11PM 42.9161 -77.8672 78° East 491 565 27,000  Level Cleveland Center
12:12PM 42.9450 -77.6817 78° East 491 565 27,000  Level Cleveland Center
12:13PM 42.9711 -77.4931 79° East 491 565 27,000  Level Cleveland Center
12:15PM 42.9954 -77.3354 78° East  Level FlightAware Approximate
12:16PM 43.0361 -77.0656 78° East 501 577 27,000  Level Boston Center
12:17PM 43.0644 -76.8769 78° East 501 577 27,000  Level Boston Center
12:18PM 43.0925 -76.6856 79° East 506 582 27,000  Level Boston Center
12:19PM 43.1175 -76.5167 78° East 506 582 27,000  Level Boston Center
12:20PM 43.1531 -76.3283 75° East 506 582 27,000  Level Boston Center
12:21PM 43.2297 -76.1619 58° Northeast 501 577 27,000  Level Boston Center
12:22PM 43.3017 -75.9925 60° Northeast 506 582 27,000  Level Boston Center
12:23PM 43.3756 -75.8281 58° Northeast 501 577 27,000  Level Boston Center
12:24PM 43.4492 -75.6578 59° Northeast 501 577 27,000  Level Boston Center
12:25PM 43.5228 -75.4869 59° Northeast 506 582 27,000  Level Boston Center
12:26PM 43.5939 -75.3156 60° Northeast 506 582 27,000  Level Boston Center
12:27PM 43.6647 -75.1467 60° Northeast 506 582 27,000 -660 Level Boston Center
12:28PM 43.7331 -74.9772 61° Northeast 506 582 25,700 -1,680 Descending Boston Center
12:29PM 43.8100 -74.7936 60° Northeast 501 577 23,700 -2,100 Descending Boston Center
12:30PM 43.8822 -74.6236 59° Northeast 501 577 21,600 -2,040 Descending Boston Center
12:31PM 43.9478 -74.4614 61° Northeast 490 564 19,600 -1,380 Descending Boston Center
12:32PM 44.0086 -74.3106 61° Northeast 469 540 18,800 -1,620 Descending Boston Center
12:33PM 44.0669 -74.1681 60° Northeast 441 507 16,500 -2,280 Descending Boston Center
12:34PM 44.1189 -74.0422 60° Northeast 415 478 14,400 -2,220 Descending Boston Center
12:35PM 44.1894 -73.9050 54° Northeast 420 483 12,100 -2,280 Descending Boston Center